createdAt,value
2023-05-13T00:00:45.750Z,75.50
2023-05-13T00:03:13.123Z,75.20
2023-05-13T00:05:40.893Z,75.60
2023-05-13T00:08:08.454Z,75.20
2023-05-13T00:10:36.529Z,75.00
2023-05-13T00:13:03.856Z,75.30
2023-05-13T00:15:31.565Z,75.50
2023-05-13T00:17:58.840Z,76.10
2023-05-13T00:20:26.262Z,76.40
2023-05-13T00:22:53.531Z,76.00
2023-05-13T00:25:20.776Z,76.10
2023-05-13T00:27:48.291Z,76.40
2023-05-13T00:30:15.583Z,78.00
2023-05-13T00:32:42.994Z,79.00
2023-05-13T00:35:10.709Z,79.00
2023-05-13T00:37:38.059Z,79.80
2023-05-13T00:40:05.887Z,80.40
2023-05-13T00:42:33.246Z,81.00
2023-05-13T00:45:00.738Z,81.40
2023-05-13T00:47:28.845Z,81.80
2023-05-13T00:49:56.452Z,82.20
2023-05-13T00:52:24.032Z,82.20
2023-05-13T00:54:51.508Z,82.30
2023-05-13T00:57:19.170Z,82.90
2023-05-13T00:59:46.429Z,82.80
2023-05-13T01:02:22.430Z,82.90
2023-05-13T01:04:55.709Z,83.00
2023-05-13T01:07:55.181Z,83.00
2023-05-13T01:10:31.461Z,83.00
2023-05-13T01:13:04.391Z,83.90
2023-05-13T01:15:33.326Z,84.30
2023-05-13T01:18:14.126Z,84.40
2023-05-13T01:20:42.999Z,84.70
2023-05-13T01:23:11.909Z,85.00
2023-05-13T01:25:40.383Z,85.10
2023-05-13T01:28:09.206Z,84.90
2023-05-13T01:30:37.240Z,84.30
2023-05-13T01:33:05.412Z,84.40
2023-05-13T01:35:32.892Z,83.50
2023-05-13T01:38:02.055Z,84.30
2023-05-13T01:40:32.394Z,86.20
2023-05-13T01:43:00.954Z,87.00
2023-05-13T01:45:30.282Z,87.10
2023-05-13T01:47:57.689Z,87.80
2023-05-13T01:50:25.502Z,87.70
2023-05-13T01:52:54.408Z,88.10
2023-05-13T01:58:03.342Z,89.00
2023-05-13T02:00:30.803Z,88.50
2023-05-13T02:02:58.591Z,89.10
2023-05-13T02:05:26.808Z,90.40
2023-05-13T02:07:54.260Z,90.90
2023-05-13T02:10:21.933Z,91.40
2023-05-13T02:12:49.501Z,91.50
2023-05-13T02:15:16.757Z,91.30
2023-05-13T02:17:44.059Z,92.00
2023-05-13T02:20:12.893Z,91.80
2023-05-13T02:22:40.177Z,92.20
2023-05-13T02:25:08.251Z,92.20
2023-05-13T02:27:35.783Z,92.20
2023-05-13T02:30:03.232Z,92.20
2023-05-13T02:32:30.843Z,92.20
2023-05-13T02:34:58.460Z,92.20
2023-05-13T02:37:25.761Z,92.20
2023-05-13T02:39:52.990Z,92.20
2023-05-13T02:42:20.253Z,92.20
2023-05-13T02:44:48.828Z,92.20
2023-05-13T02:47:16.413Z,92.20
2023-05-13T02:49:43.704Z,92.20
2023-05-13T02:52:11.196Z,92.20
2023-05-13T02:54:38.411Z,92.20
2023-05-13T02:57:05.999Z,92.20
2023-05-13T02:59:33.940Z,92.20
2023-05-13T03:02:01.308Z,92.20
2023-05-13T03:04:28.562Z,92.20
2023-05-13T03:06:56.123Z,92.20
2023-05-13T03:09:23.511Z,92.20
2023-05-13T03:11:50.881Z,92.20
2023-05-13T03:14:18.210Z,92.20
2023-05-13T03:16:45.611Z,92.20
2023-05-13T03:19:13.106Z,92.20
2023-05-13T03:21:40.572Z,92.20
2023-05-13T03:24:08.307Z,92.20
2023-05-13T03:26:36.222Z,92.20
2023-05-13T03:29:03.666Z,92.20
2023-05-13T03:31:31.102Z,92.20
2023-05-13T03:33:58.422Z,92.20
2023-05-13T03:36:25.717Z,92.20
2023-05-13T03:38:53.017Z,92.20
2023-05-13T03:41:20.325Z,92.20
2023-05-13T03:43:47.692Z,92.20
2023-05-13T03:46:15.263Z,92.20
2023-05-13T03:48:42.600Z,92.20
2023-05-13T03:51:10.585Z,91.80
2023-05-13T03:53:37.897Z,91.10
2023-05-13T03:56:05.672Z,90.40
2023-05-13T03:58:32.974Z,89.60
2023-05-13T04:01:00.267Z,89.10
2023-05-13T04:03:27.503Z,87.70
2023-05-13T04:05:54.874Z,87.40
2023-05-13T04:08:22.188Z,87.50
2023-05-13T04:10:49.520Z,87.80
2023-05-13T04:13:16.979Z,87.50
2023-05-13T04:15:44.571Z,87.50
2023-05-13T04:18:11.880Z,87.80
2023-05-13T04:20:39.968Z,87.70
2023-05-13T04:23:08.167Z,87.40
2023-05-13T04:25:37.625Z,87.90
2023-05-13T04:28:05.298Z,87.70
2023-05-13T04:30:32.736Z,87.80
2023-05-13T04:33:00.431Z,87.80
2023-05-13T04:35:27.707Z,87.90
2023-05-13T04:37:55.143Z,88.30
2023-05-13T04:40:23.803Z,88.50
2023-05-13T04:42:55.296Z,88.50
2023-05-13T04:45:22.834Z,88.80
2023-05-13T04:47:50.208Z,89.10
2023-05-13T04:50:17.767Z,88.90
2023-05-13T04:52:46.539Z,89.30
2023-05-13T04:55:13.985Z,89.30
2023-05-13T04:57:41.408Z,90.20
2023-05-13T05:00:09.751Z,90.10
2023-05-13T05:02:37.037Z,90.90
2023-05-13T05:05:04.658Z,91.30
2023-05-13T05:07:31.887Z,91.90
2023-05-13T05:09:59.252Z,92.20
2023-05-13T05:12:26.841Z,92.20
2023-05-13T05:14:54.176Z,92.20
2023-05-13T05:17:21.513Z,92.20
2023-05-13T05:19:48.891Z,92.20
2023-05-13T05:22:16.178Z,92.20
2023-05-13T05:24:43.778Z,92.20
2023-05-13T05:27:10.988Z,92.20
2023-05-13T05:29:38.201Z,92.20
2023-05-13T05:32:06.038Z,92.20
2023-05-13T05:34:33.503Z,92.20
2023-05-13T05:37:00.751Z,92.20
2023-05-13T05:39:28.204Z,92.20
2023-05-13T05:42:01.325Z,92.20
2023-05-13T05:44:28.691Z,92.20
2023-05-13T05:46:56.006Z,92.20
2023-05-13T05:49:23.514Z,92.20
2023-05-13T05:51:51.356Z,92.20
2023-05-13T05:54:18.616Z,92.20
2023-05-13T05:56:45.905Z,91.40
2023-05-13T05:59:13.768Z,90.70
2023-05-13T06:01:41.386Z,90.50
2023-05-13T06:04:08.697Z,89.60
2023-05-13T06:06:37.546Z,89.50
2023-05-13T06:09:04.831Z,88.20
2023-05-13T06:11:32.090Z,87.50
2023-05-13T06:13:59.766Z,86.40
2023-05-13T06:16:27.023Z,85.90
2023-05-13T06:18:54.622Z,83.90
2023-05-13T06:21:22.138Z,83.10
2023-05-13T06:23:49.601Z,82.20
2023-05-13T06:26:17.337Z,82.60
2023-05-13T06:28:44.617Z,81.10
2023-05-13T06:31:12.513Z,81.60
2023-05-13T06:33:39.920Z,80.60
2023-05-13T06:36:07.588Z,79.40
2023-05-13T06:38:35.236Z,79.00
2023-05-13T06:41:02.823Z,78.80
2023-05-13T06:43:30.175Z,78.20
2023-05-13T06:45:57.623Z,77.60
2023-05-13T06:48:25.090Z,76.00
2023-05-13T06:50:52.681Z,76.10
2023-05-13T06:53:20.033Z,76.20
2023-05-13T06:55:48.206Z,75.20
2023-05-13T06:58:15.656Z,73.70
2023-05-13T07:00:43.432Z,73.80
2023-05-13T07:03:10.866Z,74.20
2023-05-13T07:05:38.593Z,75.40
2023-05-13T07:08:07.742Z,74.20
2023-05-13T07:10:36.601Z,73.80
2023-05-13T07:13:04.319Z,72.40
2023-05-13T07:15:31.669Z,73.20
2023-05-13T07:17:58.966Z,73.60
2023-05-13T07:20:27.342Z,73.10
2023-05-13T07:22:54.676Z,73.30
2023-05-13T07:25:21.989Z,72.60
2023-05-13T07:27:49.290Z,73.40
2023-05-13T07:30:16.618Z,73.80
2023-05-13T07:32:44.208Z,73.40
2023-05-13T07:35:12.326Z,73.40
2023-05-13T07:37:39.658Z,72.20
2023-05-13T07:40:11.710Z,72.10
2023-05-13T07:42:44.348Z,72.80
2023-05-13T07:45:11.978Z,73.20
2023-05-13T07:47:40.648Z,73.20
2023-05-13T07:50:09.478Z,73.10
2023-05-13T07:52:37.630Z,73.00
2023-05-13T07:55:06.105Z,73.40
2023-05-13T07:57:34.917Z,73.40
2023-05-13T08:00:02.676Z,74.20
2023-05-13T08:02:35.184Z,74.70
2023-05-13T08:05:02.882Z,75.10
2023-05-13T08:07:30.530Z,75.90
2023-05-13T08:09:57.785Z,76.80
2023-05-13T08:12:25.331Z,77.10
2023-05-13T08:14:52.773Z,77.20
2023-05-13T08:17:20.279Z,77.40
2023-05-13T08:19:47.729Z,76.60
2023-05-13T08:22:15.648Z,77.20
2023-05-13T08:24:43.443Z,77.60
2023-05-13T08:27:10.911Z,76.40
2023-05-13T08:29:38.286Z,75.00
2023-05-13T08:32:06.741Z,75.40
2023-05-13T08:34:34.308Z,75.30
2023-05-13T08:37:01.636Z,72.70
2023-05-13T08:39:29.630Z,73.70
2023-05-13T08:42:02.122Z,74.30
2023-05-13T08:44:32.641Z,73.80
2023-05-13T08:47:12.004Z,73.70
2023-05-13T08:49:39.924Z,71.60
2023-05-13T08:52:09.074Z,71.60
2023-05-13T08:54:38.743Z,73.90
2023-05-13T08:57:06.925Z,73.30
2023-05-13T08:59:34.195Z,70.80
2023-05-13T09:02:04.760Z,71.40
2023-05-13T09:04:34.717Z,72.70
2023-05-13T09:07:03.186Z,70.90
2023-05-13T09:09:30.653Z,70.00
2023-05-13T09:11:57.946Z,68.10
2023-05-13T09:14:32.384Z,68.90
2023-05-13T09:17:01.379Z,69.80
2023-05-13T09:19:28.992Z,70.10
2023-05-13T09:21:57.873Z,69.70
2023-05-13T09:24:25.594Z,68.00
2023-05-13T09:26:53.042Z,67.30
2023-05-13T09:29:23.141Z,66.20
2023-05-13T09:31:51.687Z,66.50
2023-05-13T09:34:33.154Z,65.70
2023-05-13T09:37:03.672Z,67.80
2023-05-13T09:39:33.786Z,65.80
2023-05-13T09:42:04.530Z,67.00
2023-05-13T09:44:33.306Z,67.30
2023-05-13T09:47:02.819Z,67.80
2023-05-13T09:49:32.211Z,68.80
2023-05-13T09:51:59.858Z,69.40
2023-05-13T09:54:29.771Z,69.90
2023-05-13T09:57:01.744Z,69.40
2023-05-13T09:59:32.573Z,68.20
2023-05-13T10:02:02.071Z,68.10
2023-05-13T10:04:29.784Z,67.10
2023-05-13T10:06:58.836Z,67.00
2023-05-13T10:09:29.251Z,67.40
2023-05-13T10:11:57.853Z,67.30
2023-05-13T10:14:25.624Z,67.90
2023-05-13T10:16:53.219Z,67.30
2023-05-13T10:19:21.580Z,68.60
2023-05-13T10:21:50.795Z,69.00
2023-05-13T10:24:18.488Z,69.80
2023-05-13T10:26:46.621Z,69.10
2023-05-13T10:29:14.607Z,70.40
2023-05-13T10:31:42.899Z,70.40
2023-05-13T10:34:11.615Z,70.60
2023-05-13T10:36:53.994Z,71.30
2023-05-13T10:39:33.656Z,70.80
2023-05-13T10:42:26.093Z,70.40
2023-05-13T10:44:58.138Z,69.70
2023-05-13T10:47:27.416Z,69.50
2023-05-13T10:49:54.760Z,70.10
2023-05-13T10:52:22.308Z,69.20
2023-05-13T10:55:03.442Z,69.80
2023-05-13T10:57:37.873Z,69.30
2023-05-13T11:00:19.463Z,69.90
2023-05-13T11:02:47.030Z,69.60
2023-05-13T11:05:23.902Z,70.00
2023-05-13T11:07:58.246Z,70.00
2023-05-13T11:10:33.321Z,70.70
2023-05-13T11:13:22.920Z,70.50
2023-05-13T11:15:52.257Z,68.30
2023-05-13T11:18:21.191Z,69.70
2023-05-13T11:20:53.790Z,70.70
2023-05-13T11:23:21.802Z,70.10
2023-05-13T11:26:12.424Z,69.90
2023-05-13T11:29:06.629Z,70.20
2023-05-13T11:31:53.485Z,67.60
2023-05-13T11:34:21.390Z,69.40
2023-05-13T11:37:13.010Z,65.60
2023-05-13T11:39:41.878Z,66.10
2023-05-13T11:42:11.519Z,65.20
2023-05-13T11:44:47.158Z,65.20
2023-05-13T11:47:14.966Z,65.30
2023-05-13T11:49:44.338Z,64.80
2023-05-13T11:52:17.253Z,65.40
2023-05-13T11:54:49.847Z,65.10
2023-05-13T11:57:29.677Z,65.80
2023-05-13T12:00:04.130Z,66.00
2023-05-13T12:02:37.873Z,65.70
2023-05-13T12:05:08.711Z,65.80
2023-05-13T12:07:37.746Z,65.70
2023-05-13T12:10:06.720Z,64.70
2023-05-13T12:12:36.820Z,64.80
2023-05-13T12:15:06.980Z,65.20
2023-05-13T12:17:34.891Z,64.10
2023-05-13T12:20:13.366Z,64.80
2023-05-13T12:22:43.923Z,65.00
2023-05-13T12:25:36.866Z,63.60
2023-05-13T12:28:24.848Z,64.20
2023-05-13T12:31:04.429Z,63.90
2023-05-13T12:33:43.168Z,65.60
2023-05-13T12:36:33.980Z,67.70
2023-05-13T12:39:04.670Z,67.80
2023-05-13T12:41:36.065Z,67.40
2023-05-13T12:44:04.948Z,66.40
2023-05-13T12:46:33.106Z,65.90
2023-05-13T12:49:02.334Z,64.90
2023-05-13T12:51:30.798Z,61.30
2023-05-13T12:53:59.011Z,61.10
2023-05-13T12:56:26.841Z,60.00
2023-05-13T12:58:54.707Z,60.70
2023-05-13T13:01:22.552Z,60.40
2023-05-13T13:03:50.220Z,59.80
2023-05-13T13:06:18.047Z,60.10
2023-05-13T13:08:46.073Z,61.80
2023-05-13T13:11:19.108Z,61.10
2023-05-13T13:13:47.648Z,60.00
2023-05-13T13:16:15.492Z,59.20
2023-05-13T13:18:43.552Z,59.90
2023-05-13T13:21:11.630Z,59.90
2023-05-13T13:23:38.973Z,62.10
2023-05-13T13:26:06.449Z,59.80
2023-05-13T13:28:33.809Z,58.30
2023-05-13T13:31:01.239Z,58.40
2023-05-13T13:33:28.595Z,58.80
2023-05-13T13:35:56.094Z,59.30
2023-05-13T13:38:23.534Z,57.70
2023-05-13T13:40:51.160Z,57.00
2023-05-13T13:43:18.586Z,57.70
2023-05-13T13:45:45.947Z,57.10
2023-05-13T13:48:14.071Z,57.50
2023-05-13T13:50:41.753Z,57.80
2023-05-13T13:53:09.030Z,57.80
2023-05-13T13:55:36.425Z,56.00
2023-05-13T13:58:04.132Z,57.20
2023-05-13T14:00:31.727Z,58.00
2023-05-13T14:02:59.178Z,56.80
2023-05-13T14:05:26.741Z,57.40
2023-05-13T14:07:55.937Z,56.90
2023-05-13T14:10:23.477Z,57.20
2023-05-13T14:12:50.923Z,57.20
2023-05-13T14:15:18.383Z,57.20
2023-05-13T14:17:45.746Z,57.50
2023-05-13T14:20:15.849Z,57.80
2023-05-13T14:22:43.717Z,57.50
2023-05-13T14:25:11.117Z,57.70
2023-05-13T14:27:38.436Z,58.20
2023-05-13T14:30:07.246Z,57.10
2023-05-13T14:32:35.234Z,57.20
2023-05-13T14:35:02.550Z,57.40
2023-05-13T14:37:30.234Z,57.70
2023-05-13T14:39:57.532Z,58.40
2023-05-13T14:42:25.019Z,57.90
2023-05-13T14:44:52.447Z,58.30
2023-05-13T14:47:19.893Z,58.40
2023-05-13T14:49:47.740Z,58.30
2023-05-13T14:52:16.047Z,58.40
2023-05-13T14:54:43.366Z,58.80
2023-05-13T14:57:11.639Z,59.10
2023-05-13T14:59:40.580Z,59.10
2023-05-13T15:02:08.586Z,58.90
2023-05-13T15:04:36.781Z,59.00
2023-05-13T15:07:04.228Z,59.10
2023-05-13T15:09:31.994Z,58.80
2023-05-13T15:11:59.536Z,59.20
2023-05-13T15:14:27.044Z,59.00
2023-05-13T15:16:54.636Z,59.20
2023-05-13T15:19:22.088Z,59.20
2023-05-13T15:21:49.390Z,59.40
2023-05-13T15:24:16.770Z,59.90
2023-05-13T15:26:45.149Z,59.80
2023-05-13T15:29:12.485Z,59.80
2023-05-13T15:31:39.831Z,59.90
2023-05-13T15:34:07.802Z,59.60
2023-05-13T15:36:36.060Z,59.80
2023-05-13T15:39:03.336Z,59.60
2023-05-13T15:41:30.665Z,59.50
2023-05-13T15:43:58.005Z,59.40
2023-05-13T15:46:26.049Z,59.30
2023-05-13T15:48:57.048Z,59.80
2023-05-13T15:51:24.332Z,60.30
2023-05-13T15:53:53.099Z,60.40
2023-05-13T15:56:26.796Z,60.50
2023-05-13T15:58:56.013Z,60.70
2023-05-13T16:01:23.345Z,60.80
2023-05-13T16:03:50.806Z,61.20
2023-05-13T16:06:18.073Z,61.20
2023-05-13T16:08:45.396Z,61.80
2023-05-13T16:11:13.421Z,60.90
2023-05-13T16:13:41.101Z,61.10
2023-05-13T16:16:08.958Z,60.80
2023-05-13T16:18:36.658Z,61.30
2023-05-13T16:21:04.089Z,61.90
2023-05-13T16:23:31.457Z,61.80
2023-05-13T16:26:01.489Z,62.30
2023-05-13T16:28:29.238Z,61.90
2023-05-13T16:30:58.540Z,62.00
2023-05-13T16:33:27.177Z,61.90
2023-05-13T16:35:54.675Z,62.30
2023-05-13T16:38:22.170Z,62.20
2023-05-13T16:40:49.807Z,62.40
2023-05-13T16:43:17.052Z,62.30
2023-05-13T16:45:44.454Z,62.40
2023-05-13T16:48:12.689Z,62.80
2023-05-13T16:50:40.185Z,62.80
2023-05-13T16:53:07.737Z,62.90
2023-05-13T16:55:35.615Z,62.80
2023-05-13T16:58:03.287Z,63.50
2023-05-13T17:00:30.603Z,64.10
2023-05-13T17:02:58.079Z,63.90
2023-05-13T17:05:25.648Z,63.80
2023-05-13T17:07:52.965Z,63.80
2023-05-13T17:10:20.679Z,64.00
2023-05-13T17:12:47.984Z,64.10
2023-05-13T17:15:15.486Z,64.70
2023-05-13T17:17:42.800Z,64.70
2023-05-13T17:20:11.053Z,64.90
2023-05-13T17:22:38.407Z,65.10
2023-05-13T17:25:06.185Z,65.20
2023-05-13T17:27:33.434Z,65.30
2023-05-13T17:30:00.817Z,65.50
2023-05-13T17:32:28.351Z,65.40
2023-05-13T17:34:55.797Z,65.70
2023-05-13T17:37:23.086Z,66.00
2023-05-13T17:39:50.736Z,66.10
2023-05-13T17:42:18.320Z,66.20
2023-05-13T17:44:45.546Z,66.20
2023-05-13T17:47:12.925Z,66.40
2023-05-13T17:49:40.175Z,66.00
2023-05-13T17:52:07.626Z,66.20
2023-05-13T17:54:35.205Z,66.60
2023-05-13T17:57:02.509Z,66.40
2023-05-13T17:59:29.985Z,66.70
2023-05-13T18:01:57.564Z,67.00
2023-05-13T18:04:30.745Z,67.00
2023-05-13T18:06:58.099Z,67.30
2023-05-13T18:09:25.348Z,67.30
2023-05-13T18:11:52.703Z,67.10
2023-05-13T18:14:23.017Z,67.60
2023-05-13T18:16:50.454Z,67.90
2023-05-13T18:19:17.825Z,68.30
2023-05-13T18:21:46.850Z,68.10
2023-05-13T18:24:15.241Z,68.30
2023-05-13T18:26:42.637Z,68.50
2023-05-13T18:29:12.791Z,68.60
2023-05-13T18:31:40.165Z,68.50
2023-05-13T18:34:07.795Z,68.50
2023-05-13T18:36:35.589Z,68.70
2023-05-13T18:39:03.106Z,69.00
2023-05-13T18:41:30.976Z,69.00
2023-05-13T18:43:58.396Z,69.30
2023-05-13T18:46:26.346Z,69.40
2023-05-13T18:48:54.412Z,69.80
2023-05-13T18:51:21.716Z,70.10
2023-05-13T18:53:49.070Z,69.90
2023-05-13T18:56:16.958Z,69.90
2023-05-13T18:58:47.535Z,70.30
2023-05-13T19:01:16.016Z,70.60
2023-05-13T19:03:43.496Z,70.80
2023-05-13T19:06:11.263Z,71.20
2023-05-13T19:08:38.634Z,71.40
2023-05-13T19:11:06.089Z,71.50
2023-05-13T19:13:46.009Z,71.40
2023-05-13T19:16:15.795Z,71.50
2023-05-13T19:18:43.447Z,71.70
2023-05-13T19:21:11.356Z,71.70
2023-05-13T19:23:39.369Z,71.90
2023-05-13T19:26:06.712Z,72.00
2023-05-13T19:28:38.861Z,72.10
2023-05-13T19:31:06.553Z,72.20
2023-05-13T19:33:34.588Z,72.50
2023-05-13T19:36:02.096Z,72.40
2023-05-13T19:38:29.537Z,72.60
2023-05-13T19:40:56.892Z,72.70
2023-05-13T19:43:25.241Z,72.80
2023-05-13T19:45:55.694Z,72.90
2023-05-13T19:48:23.047Z,73.00
2023-05-13T19:50:53.587Z,73.20
2023-05-13T19:53:22.204Z,73.30
2023-05-13T19:55:49.523Z,73.60
2023-05-13T19:58:18.082Z,73.70
2023-05-13T20:00:45.656Z,74.10
2023-05-13T20:03:13.683Z,74.50
2023-05-13T20:05:41.597Z,75.10
2023-05-13T20:08:09.140Z,75.40
2023-05-13T20:10:37.073Z,75.40
2023-05-13T20:13:05.185Z,75.60
2023-05-13T20:15:32.935Z,75.50
2023-05-13T20:18:00.265Z,75.70
2023-05-13T20:20:28.593Z,75.90
2023-05-13T20:22:56.207Z,76.10
2023-05-13T20:25:23.549Z,76.00
2023-05-13T20:27:51.362Z,76.20
2023-05-13T20:30:22.216Z,76.40
2023-05-13T20:32:49.781Z,76.70
2023-05-13T20:35:17.541Z,76.70
2023-05-13T20:37:45.251Z,76.70
2023-05-13T20:40:12.988Z,76.60
2023-05-13T20:42:40.522Z,76.80
2023-05-13T20:45:08.946Z,76.80
2023-05-13T20:47:37.056Z,77.20
2023-05-13T20:50:04.519Z,77.70
2023-05-13T20:52:31.985Z,78.20
2023-05-13T20:54:59.867Z,77.80
2023-05-13T20:57:27.155Z,77.90
2023-05-13T20:59:55.059Z,77.90
2023-05-13T21:02:22.540Z,78.20
2023-05-13T21:04:49.821Z,78.50
2023-05-13T21:07:18.014Z,79.00
2023-05-13T21:09:45.680Z,79.80
2023-05-13T21:12:12.932Z,80.30
2023-05-13T21:14:40.795Z,80.70
2023-05-13T21:17:09.041Z,81.70
2023-05-13T21:19:36.790Z,82.60
2023-05-13T21:22:06.669Z,83.20
2023-05-13T21:24:33.917Z,83.60
2023-05-13T21:27:01.138Z,84.10
2023-05-13T21:29:30.483Z,84.20
2023-05-13T21:31:58.042Z,84.90
2023-05-13T21:34:25.535Z,85.60
2023-05-13T21:36:53.447Z,86.00
2023-05-13T21:39:20.757Z,86.30
2023-05-13T21:41:48.136Z,86.60
2023-05-13T21:44:15.373Z,86.90
2023-05-13T21:46:42.795Z,87.10
2023-05-13T21:49:10.630Z,87.40
2023-05-13T21:51:37.975Z,88.00
2023-05-13T21:54:05.309Z,88.40
2023-05-13T21:56:32.669Z,88.70
2023-05-13T21:59:00.230Z,88.70
2023-05-13T22:01:27.933Z,89.70
2023-05-13T22:03:56.185Z,89.90
2023-05-13T22:06:24.101Z,90.10
2023-05-13T22:08:51.314Z,90.60
2023-05-13T22:11:18.851Z,90.60
2023-05-13T22:13:46.289Z,91.20
2023-05-13T22:16:15.641Z,91.20
2023-05-13T22:18:43.697Z,91.30
2023-05-13T22:21:11.202Z,91.40
2023-05-13T22:23:38.514Z,91.40
2023-05-13T22:26:05.901Z,91.50
2023-05-13T22:28:33.236Z,91.90
2023-05-13T22:31:00.651Z,92.00
2023-05-13T22:33:28.214Z,92.00
2023-05-13T22:35:55.527Z,92.10
2023-05-13T22:38:23.055Z,92.20
2023-05-13T22:40:50.358Z,92.20
2023-05-13T22:43:17.584Z,92.20
2023-05-13T22:45:45.251Z,92.20
2023-05-13T22:48:12.648Z,92.20
2023-05-13T22:50:41.600Z,92.20
2023-05-13T22:53:08.930Z,92.20
2023-05-13T22:55:36.829Z,92.20
2023-05-13T22:58:04.130Z,92.20
2023-05-13T23:00:31.487Z,92.20
2023-05-13T23:03:01.547Z,92.20
2023-05-13T23:05:28.908Z,92.20
2023-05-13T23:07:56.325Z,92.20
2023-05-13T23:10:24.021Z,92.20
2023-05-13T23:12:51.437Z,92.20
2023-05-13T23:15:18.975Z,92.20
2023-05-13T23:17:46.459Z,92.20
2023-05-13T23:20:13.961Z,92.20
2023-05-13T23:22:41.296Z,92.20
2023-05-13T23:25:09.883Z,92.20
2023-05-13T23:27:37.296Z,92.20
2023-05-13T23:30:05.217Z,92.20
2023-05-13T23:32:32.651Z,92.20
2023-05-13T23:34:59.962Z,92.20
2023-05-13T23:37:27.254Z,92.20
2023-05-13T23:39:54.513Z,92.20
2023-05-13T23:42:22.097Z,92.20
2023-05-13T23:44:49.424Z,92.20
2023-05-13T23:47:17.067Z,92.20
2023-05-13T23:49:44.431Z,92.20
2023-05-13T23:52:11.693Z,92.20
2023-05-13T23:54:39.176Z,92.20
2023-05-13T23:57:06.509Z,92.20
2023-05-13T23:59:33.911Z,92.20
